createdAt,value
2018-06-16T00:00:34.415Z,13.60
2018-06-16T00:01:34.353Z,12.60
2018-06-16T00:02:34.291Z,12.30
2018-06-16T00:03:34.228Z,13.00
2018-06-16T00:04:34.167Z,12.90
2018-06-16T00:05:34.105Z,12.50
2018-06-16T00:06:34.040Z,12.40
2018-06-16T00:07:33.978Z,11.50
2018-06-16T00:08:33.917Z,12.70
2018-06-16T00:09:33.856Z,12.70
2018-06-16T00:10:33.796Z,12.30
2018-06-16T00:11:33.732Z,12.80
2018-06-16T00:12:33.670Z,12.20
2018-06-16T00:13:33.605Z,13.10
2018-06-16T00:14:33.543Z,12.40
2018-06-16T00:15:33.479Z,12.90
2018-06-16T00:16:33.421Z,12.20
2018-06-16T00:17:33.383Z,12.10
2018-06-16T00:18:33.292Z,12.90
2018-06-16T00:19:33.232Z,12.90
2018-06-16T00:20:33.171Z,12.90
2018-06-16T00:21:33.106Z,12.80
2018-06-16T00:22:33.045Z,12.90
2018-06-16T00:23:32.982Z,13.60
2018-06-16T00:24:32.919Z,13.10
2018-06-16T00:25:32.860Z,13.50
2018-06-16T00:26:32.799Z,13.60
2018-06-16T00:27:32.735Z,14.00
2018-06-16T00:28:32.681Z,13.60
2018-06-16T00:29:32.609Z,13.50
2018-06-16T00:30:32.545Z,13.80
2018-06-16T00:31:32.491Z,13.40
2018-06-16T00:32:32.422Z,13.40
2018-06-16T00:33:32.361Z,13.50
2018-06-16T00:34:32.296Z,13.80
2018-06-16T00:35:32.234Z,13.10
2018-06-16T00:36:32.173Z,14.10
2018-06-16T00:37:32.111Z,13.80
2018-06-16T00:38:32.047Z,14.10
2018-06-16T00:39:31.984Z,13.40
2018-06-16T00:40:31.925Z,13.20
2018-06-16T00:41:31.865Z,13.00
2018-06-16T00:42:31.802Z,13.60
2018-06-16T00:43:31.736Z,12.70
2018-06-16T00:44:31.673Z,13.00
2018-06-16T00:45:31.611Z,12.60
2018-06-16T00:46:31.547Z,12.90
2018-06-16T00:47:31.490Z,12.80
2018-06-16T00:48:31.424Z,12.80
2018-06-16T00:49:31.360Z,13.00
2018-06-16T00:50:31.298Z,13.80
2018-06-16T00:51:31.237Z,12.90
2018-06-16T00:52:31.174Z,12.60
2018-06-16T00:53:31.112Z,12.80
2018-06-16T00:54:31.048Z,12.90
2018-06-16T00:55:30.986Z,12.50
2018-06-16T00:56:30.924Z,12.30
2018-06-16T00:57:30.864Z,12.50
2018-06-16T00:58:30.803Z,13.00
2018-06-16T00:59:30.741Z,12.60
2018-06-16T01:00:30.674Z,12.40
2018-06-16T01:01:30.613Z,12.80
2018-06-16T01:02:30.547Z,12.50
2018-06-16T01:03:30.488Z,13.20
2018-06-16T01:04:30.425Z,12.40
2018-06-16T01:05:30.361Z,12.30
2018-06-16T01:06:30.300Z,13.00
2018-06-16T01:07:30.238Z,12.60
2018-06-16T01:08:30.173Z,12.90
2018-06-16T01:09:30.116Z,13.50
2018-06-16T01:10:30.052Z,13.10
2018-06-16T01:11:29.987Z,12.40
2018-06-16T01:12:29.926Z,12.80
2018-06-16T01:13:29.863Z,13.20
2018-06-16T01:14:29.800Z,12.70
2018-06-16T01:15:29.741Z,12.50
2018-06-16T01:16:29.674Z,11.70
2018-06-16T01:17:29.614Z,12.90
2018-06-16T01:18:29.553Z,12.10
2018-06-16T01:19:29.487Z,11.70
2018-06-16T01:20:29.424Z,12.30
2018-06-16T01:21:29.362Z,11.70
2018-06-16T01:22:29.300Z,12.00
2018-06-16T01:23:29.237Z,12.00
2018-06-16T01:24:29.177Z,11.50
2018-06-16T01:25:29.113Z,12.10
2018-06-16T01:26:29.051Z,12.10
2018-06-16T01:27:28.988Z,11.60
2018-06-16T01:28:28.924Z,12.20
2018-06-16T01:29:28.863Z,11.90
2018-06-16T01:30:28.802Z,11.20
2018-06-16T01:31:28.736Z,11.10
2018-06-16T01:32:28.677Z,11.10
2018-06-16T01:33:28.611Z,11.70
2018-06-16T01:34:28.548Z,11.50
2018-06-16T01:35:28.487Z,11.80
2018-06-16T01:36:28.424Z,11.30
2018-06-16T01:37:28.362Z,11.70
2018-06-16T01:38:28.300Z,11.30
2018-06-16T01:39:28.237Z,11.00
2018-06-16T01:40:28.176Z,11.60
2018-06-16T01:41:28.120Z,12.20
2018-06-16T01:42:28.047Z,11.60
2018-06-16T01:43:27.987Z,11.50
2018-06-16T01:44:27.924Z,11.70
2018-06-16T01:45:27.866Z,11.80
2018-06-16T01:46:27.798Z,11.40
2018-06-16T01:47:27.745Z,11.50
2018-06-16T01:48:27.676Z,11.80
2018-06-16T01:49:27.618Z,11.40
2018-06-16T01:50:27.548Z,11.80
2018-06-16T01:51:27.485Z,12.10
2018-06-16T01:52:27.423Z,12.00
2018-06-16T01:53:27.360Z,12.10
2018-06-16T01:54:27.299Z,11.70
2018-06-16T01:55:27.236Z,12.30
2018-06-16T01:56:27.174Z,12.70
2018-06-16T01:57:27.111Z,11.60
2018-06-16T01:58:27.046Z,12.40
2018-06-16T01:59:26.987Z,12.30
2018-06-16T02:00:26.925Z,12.50
2018-06-16T02:01:26.862Z,12.40
2018-06-16T02:02:26.797Z,11.90
2018-06-16T02:03:26.740Z,12.10
2018-06-16T02:04:26.671Z,11.90
2018-06-16T02:05:26.611Z,11.80
2018-06-16T02:06:26.550Z,12.70
2018-06-16T02:07:26.487Z,12.00
2018-06-16T02:08:26.423Z,12.70
2018-06-16T02:09:26.361Z,11.90
2018-06-16T02:10:26.296Z,11.50
2018-06-16T02:11:26.234Z,11.50
2018-06-16T02:12:26.173Z,11.60
2018-06-16T02:13:26.109Z,11.60
2018-06-16T02:14:26.046Z,11.70
2018-06-16T02:15:25.982Z,11.80
2018-06-16T02:16:25.921Z,12.10
2018-06-16T02:17:25.859Z,11.70
2018-06-16T02:18:25.795Z,15.00
2018-06-16T02:19:25.733Z,11.80
2018-06-16T02:20:25.671Z,12.50
2018-06-16T02:21:25.608Z,12.60
2018-06-16T02:22:25.544Z,12.20
2018-06-16T02:23:25.482Z,12.70
2018-06-16T02:24:25.422Z,11.70
2018-06-16T02:25:25.357Z,12.30
2018-06-16T02:26:25.295Z,12.10
2018-06-16T02:27:25.231Z,12.60
2018-06-16T02:28:25.169Z,12.10
2018-06-16T02:29:25.107Z,12.80
2018-06-16T02:30:25.042Z,11.50
2018-06-16T02:31:24.980Z,11.90
2018-06-16T02:32:24.920Z,12.10
2018-06-16T02:33:24.856Z,12.20
2018-06-16T02:34:24.804Z,12.30
2018-06-16T02:35:24.733Z,12.30
2018-06-16T02:36:24.668Z,11.70
2018-06-16T02:37:24.605Z,12.40
2018-06-16T02:38:24.543Z,12.30
2018-06-16T02:39:24.479Z,12.40
2018-06-16T02:40:24.417Z,11.40
2018-06-16T02:41:24.355Z,11.60
2018-06-16T02:42:24.291Z,11.40
2018-06-16T02:43:24.228Z,11.30
2018-06-16T02:44:24.169Z,11.60
2018-06-16T02:45:24.103Z,11.90
2018-06-16T02:46:24.041Z,12.40
2018-06-16T02:47:23.976Z,11.50
2018-06-16T02:48:23.915Z,12.20
2018-06-16T02:49:23.852Z,11.20
2018-06-16T02:50:23.821Z,12.10
2018-06-16T02:51:23.727Z,12.20
2018-06-16T02:52:23.664Z,12.40
2018-06-16T02:53:23.602Z,13.10
2018-06-16T02:54:23.538Z,11.60
2018-06-16T02:55:23.479Z,12.00
2018-06-16T02:56:23.414Z,12.30
2018-06-16T02:57:23.353Z,12.00
2018-06-16T02:58:23.286Z,12.60
2018-06-16T02:59:23.223Z,11.30
2018-06-16T03:00:23.166Z,11.50
2018-06-16T03:01:23.100Z,11.50
2018-06-16T03:02:23.035Z,12.00
2018-06-16T03:03:23.069Z,12.10
2018-06-16T03:04:22.910Z,12.10
2018-06-16T03:05:22.848Z,11.30
2018-06-16T03:06:22.784Z,11.80
2018-06-16T03:07:22.729Z,11.70
2018-06-16T03:08:22.660Z,12.30
2018-06-16T03:09:22.599Z,11.90
2018-06-16T03:10:22.534Z,11.60
2018-06-16T03:11:22.471Z,11.90
2018-06-16T03:12:22.409Z,11.80
2018-06-16T03:13:22.352Z,12.30
2018-06-16T03:14:22.293Z,12.40
2018-06-16T03:15:22.221Z,12.30
2018-06-16T03:16:22.164Z,12.00
2018-06-16T03:17:22.096Z,11.80
2018-06-16T03:18:22.032Z,12.40
2018-06-16T03:19:21.970Z,11.50
2018-06-16T03:20:21.909Z,11.80
2018-06-16T03:21:21.845Z,11.70
2018-06-16T03:22:21.785Z,12.00
2018-06-16T03:23:21.718Z,11.70
2018-06-16T03:24:21.655Z,12.10
2018-06-16T03:25:21.606Z,11.40
2018-06-16T03:26:21.532Z,11.20
2018-06-16T03:27:21.466Z,11.60
2018-06-16T03:28:21.404Z,11.20
2018-06-16T03:29:21.342Z,11.90
2018-06-16T03:30:21.279Z,12.20
2018-06-16T03:31:21.216Z,11.50
2018-06-16T03:32:21.153Z,12.30
2018-06-16T03:33:21.089Z,12.00
2018-06-16T03:34:21.025Z,12.90
2018-06-16T03:35:20.966Z,11.80
2018-06-16T03:36:20.908Z,11.70
2018-06-16T03:37:20.839Z,11.90
2018-06-16T03:38:20.776Z,11.50
2018-06-16T03:39:20.713Z,11.70
2018-06-16T03:40:20.654Z,12.00
2018-06-16T03:41:20.593Z,12.10
2018-06-16T03:42:20.525Z,11.70
2018-06-16T03:43:20.464Z,12.00
2018-06-16T03:44:20.402Z,11.50
2018-06-16T03:45:20.337Z,11.80
2018-06-16T03:46:20.276Z,11.90
2018-06-16T03:47:20.211Z,11.50
2018-06-16T03:48:20.148Z,11.20
2018-06-16T03:49:20.089Z,11.50
2018-06-16T03:50:20.023Z,11.80
2018-06-16T03:51:19.964Z,11.80
2018-06-16T03:52:19.899Z,11.00
2018-06-16T03:53:19.836Z,11.70
2018-06-16T03:54:19.772Z,11.70
2018-06-16T03:55:19.710Z,11.60
2018-06-16T03:56:19.649Z,11.50
2018-06-16T03:57:19.584Z,11.30
2018-06-16T03:58:19.521Z,12.10
2018-06-16T03:59:19.458Z,11.10
2018-06-16T04:00:19.405Z,11.80
2018-06-16T04:01:19.336Z,11.80
2018-06-16T04:02:19.272Z,11.50
2018-06-16T04:03:19.208Z,10.80
2018-06-16T04:04:19.143Z,11.90
2018-06-16T04:05:19.081Z,11.40
2018-06-16T04:06:19.016Z,10.80
2018-06-16T04:07:18.956Z,11.80
2018-06-16T04:08:18.894Z,11.10
2018-06-16T04:09:18.832Z,11.40
2018-06-16T04:10:18.767Z,11.40
2018-06-16T04:11:18.707Z,11.80
2018-06-16T04:12:18.644Z,11.30
2018-06-16T04:13:18.579Z,12.40
2018-06-16T04:14:18.518Z,12.00
2018-06-16T04:15:18.455Z,11.30
2018-06-16T04:16:18.393Z,11.50
2018-06-16T04:17:18.330Z,11.20
2018-06-16T04:18:18.268Z,11.60
2018-06-16T04:19:18.205Z,11.70
2018-06-16T04:20:18.141Z,11.70
2018-06-16T04:21:18.080Z,11.40
2018-06-16T04:22:18.015Z,11.50
2018-06-16T04:23:17.956Z,11.40
2018-06-16T04:24:17.889Z,12.20
2018-06-16T04:25:17.837Z,12.20
2018-06-16T04:26:17.768Z,11.20
2018-06-16T04:27:17.702Z,12.70
2018-06-16T04:28:17.641Z,12.10
2018-06-16T04:29:17.579Z,12.20
2018-06-16T04:30:17.518Z,12.20
2018-06-16T04:31:17.453Z,12.00
2018-06-16T04:32:17.393Z,12.00
2018-06-16T04:33:17.329Z,12.50
2018-06-16T04:34:17.266Z,11.30
2018-06-16T04:35:17.203Z,11.70
2018-06-16T04:36:17.141Z,11.50
2018-06-16T04:37:17.078Z,11.70
2018-06-16T04:38:17.015Z,11.90
2018-06-16T04:39:16.954Z,11.60
2018-06-16T04:40:16.892Z,11.60
2018-06-16T04:41:16.830Z,11.40
2018-06-16T04:42:16.768Z,11.50
2018-06-16T04:43:16.714Z,11.80
2018-06-16T04:44:16.641Z,12.30
2018-06-16T04:45:16.578Z,11.60
2018-06-16T04:46:16.554Z,11.40
2018-06-16T04:47:16.503Z,11.40
2018-06-16T04:48:16.491Z,11.00
2018-06-16T04:49:16.328Z,11.40
2018-06-16T04:50:16.265Z,11.10
2018-06-16T04:51:16.204Z,12.00
2018-06-16T04:52:16.153Z,11.50
2018-06-16T04:53:16.082Z,11.70
2018-06-16T04:54:16.015Z,11.20
2018-06-16T04:55:15.955Z,11.60
2018-06-16T04:56:15.891Z,11.70
2018-06-16T04:57:15.829Z,11.60
2018-06-16T04:58:15.766Z,11.80
2018-06-16T04:59:15.705Z,11.30
2018-06-16T05:00:15.643Z,11.80
2018-06-16T05:01:15.581Z,12.20
2018-06-16T05:02:15.521Z,12.00
2018-06-16T05:03:15.455Z,11.00
2018-06-16T05:04:15.394Z,11.30
2018-06-16T05:05:15.332Z,11.80
2018-06-16T05:06:15.269Z,11.60
2018-06-16T05:07:15.205Z,12.00
2018-06-16T05:08:15.148Z,12.00
2018-06-16T05:09:15.085Z,12.20
2018-06-16T05:10:15.021Z,11.70
2018-06-16T05:11:14.959Z,11.80
2018-06-16T05:12:14.895Z,12.00
2018-06-16T05:13:14.834Z,11.90
2018-06-16T05:14:14.771Z,12.50
2018-06-16T05:15:14.710Z,12.00
2018-06-16T05:16:14.647Z,12.30
2018-06-16T05:17:14.585Z,12.30
2018-06-16T05:18:14.522Z,12.30
2018-06-16T05:19:14.461Z,12.40
2018-06-16T05:20:14.412Z,12.40
2018-06-16T05:21:14.339Z,12.40
2018-06-16T05:22:14.276Z,12.30
2018-06-16T05:23:14.213Z,12.40
2018-06-16T05:24:14.152Z,13.10
2018-06-16T05:25:14.089Z,13.10
2018-06-16T05:26:14.028Z,13.40
2018-06-16T05:27:13.966Z,12.60
2018-06-16T05:28:13.907Z,13.60
2018-06-16T05:29:13.842Z,13.30
2018-06-16T05:30:13.780Z,14.00
2018-06-16T05:31:13.717Z,13.10
2018-06-16T05:32:13.656Z,13.70
2018-06-16T05:33:13.592Z,13.10
2018-06-16T05:34:13.533Z,13.00
2018-06-16T05:35:13.472Z,12.60
2018-06-16T05:36:13.412Z,13.90
2018-06-16T05:37:13.347Z,18.40
2018-06-16T05:38:13.288Z,21.10
2018-06-16T05:39:13.224Z,24.20
2018-06-16T05:40:13.163Z,39.10
2018-06-16T05:41:13.101Z,32.50
2018-06-16T05:42:13.039Z,23.50
2018-06-16T05:43:12.980Z,26.80
2018-06-16T05:44:12.916Z,29.40
2018-06-16T05:45:12.854Z,25.90
2018-06-16T05:46:12.795Z,23.30
2018-06-16T05:47:12.732Z,30.20
2018-06-16T05:48:12.669Z,55.40
2018-06-16T05:49:12.608Z,110.20
2018-06-16T05:50:12.547Z,57.10
2018-06-16T05:51:12.487Z,53.80
2018-06-16T05:52:12.425Z,82.50
2018-06-16T05:53:12.364Z,52.70
2018-06-16T05:54:12.305Z,69.00
2018-06-16T05:55:12.241Z,44.50
2018-06-16T05:56:12.178Z,68.10
2018-06-16T05:57:12.117Z,67.00
2018-06-16T05:58:12.055Z,66.40
2018-06-16T05:59:11.995Z,75.80
2018-06-16T06:00:11.936Z,63.60
2018-06-16T06:01:11.874Z,42.80
2018-06-16T06:02:11.810Z,36.60
2018-06-16T06:03:11.754Z,18.80
2018-06-16T06:04:11.689Z,44.70
2018-06-16T06:05:11.628Z,29.40
2018-06-16T06:06:11.567Z,32.50
2018-06-16T06:07:11.504Z,17.10
2018-06-16T06:08:11.444Z,22.20
2018-06-16T06:09:11.383Z,35.50
2018-06-16T06:10:11.354Z,80.80
2018-06-16T06:11:11.260Z,35.10
2018-06-16T06:12:11.202Z,59.90
2018-06-16T06:13:11.139Z,61.80
2018-06-16T06:14:11.075Z,43.20
2018-06-16T06:15:11.016Z,62.20
2018-06-16T06:16:10.959Z,61.50
2018-06-16T06:17:10.896Z,61.60
2018-06-16T06:18:10.832Z,60.20
2018-06-16T06:19:10.781Z,129.40
2018-06-16T06:20:10.712Z,37.50
2018-06-16T06:21:10.651Z,68.60
2018-06-16T06:22:10.590Z,73.80
2018-06-16T06:23:10.528Z,66.20
2018-06-16T06:24:10.468Z,33.80
2018-06-16T06:25:10.445Z,67.50
2018-06-16T06:26:10.347Z,89.40
2018-06-16T06:27:10.286Z,50.10
2018-06-16T06:28:10.227Z,63.80
2018-06-16T06:29:10.166Z,130.10
2018-06-16T06:30:10.103Z,134.00
2018-06-16T06:31:10.043Z,94.90
2018-06-16T06:32:10.301Z,73.90
2018-06-16T06:33:09.920Z,47.00
2018-06-16T06:34:09.863Z,81.20
2018-06-16T06:35:09.804Z,38.80
2018-06-16T06:36:09.741Z,97.70
2018-06-16T06:37:09.764Z,66.20
2018-06-16T06:38:09.619Z,26.70
2018-06-16T06:39:09.559Z,38.50
2018-06-16T06:40:09.501Z,23.70
2018-06-16T06:41:09.438Z,18.30
2018-06-16T06:42:09.378Z,16.90
2018-06-16T06:43:09.317Z,13.90
2018-06-16T06:44:09.259Z,22.60
2018-06-16T06:45:09.196Z,17.10
2018-06-16T06:46:09.137Z,14.80
2018-06-16T06:47:09.076Z,13.00
2018-06-16T06:48:09.018Z,16.70
2018-06-16T06:49:08.956Z,20.80
2018-06-16T06:50:08.894Z,25.40
2018-06-16T06:51:08.838Z,17.60
2018-06-16T06:52:08.774Z,17.00
2018-06-16T06:53:08.717Z,18.30
2018-06-16T06:54:08.654Z,14.10
2018-06-16T06:55:08.594Z,19.70
2018-06-16T06:56:08.537Z,32.60
2018-06-16T06:57:08.472Z,22.10
2018-06-16T06:58:08.416Z,16.80
2018-06-16T06:59:08.354Z,13.30
2018-06-16T07:00:08.293Z,21.80
2018-06-16T07:01:08.233Z,16.50
2018-06-16T07:02:08.173Z,15.10
2018-06-16T07:03:08.114Z,14.70
2018-06-16T07:04:08.053Z,16.50
2018-06-16T07:05:07.996Z,14.60
2018-06-16T07:06:07.934Z,17.10
2018-06-16T07:07:07.876Z,14.00
2018-06-16T07:08:07.814Z,15.20
2018-06-16T07:09:07.756Z,13.40
2018-06-16T07:10:07.699Z,14.00
2018-06-16T07:11:07.639Z,13.70
2018-06-16T07:12:07.576Z,14.90
2018-06-16T07:13:07.517Z,14.20
2018-06-16T07:14:07.455Z,13.90
2018-06-16T07:15:07.396Z,15.10
2018-06-16T07:16:07.345Z,15.10
2018-06-16T07:17:07.276Z,13.80
2018-06-16T07:18:07.215Z,13.60
2018-06-16T07:19:07.158Z,13.80
2018-06-16T07:20:07.101Z,14.50
2018-06-16T07:21:07.037Z,14.20
2018-06-16T07:22:06.978Z,13.80
2018-06-16T07:23:06.918Z,14.40
2018-06-16T07:24:06.860Z,13.50
2018-06-16T07:25:06.799Z,13.30
2018-06-16T07:26:06.741Z,13.50
2018-06-16T07:27:06.684Z,14.80
2018-06-16T07:28:06.621Z,13.60
2018-06-16T07:29:06.591Z,15.10
2018-06-16T07:30:06.504Z,12.80
2018-06-16T07:31:06.442Z,13.50
2018-06-16T07:32:06.385Z,16.80
2018-06-16T07:33:06.330Z,13.70
2018-06-16T07:34:06.266Z,19.40
2018-06-16T07:35:06.207Z,15.30
2018-06-16T07:36:06.174Z,14.30
2018-06-16T07:37:06.089Z,14.00
2018-06-16T07:38:06.036Z,13.70
2018-06-16T07:39:05.969Z,13.20
2018-06-16T07:40:05.911Z,14.70
2018-06-16T07:41:05.850Z,12.80
2018-06-16T07:42:05.792Z,13.90
2018-06-16T07:43:05.731Z,13.50
2018-06-16T07:44:05.674Z,13.60
2018-06-16T07:45:05.615Z,13.80
2018-06-16T07:46:05.556Z,13.80
2018-06-16T07:47:05.498Z,14.70
2018-06-16T07:48:05.444Z,15.20
2018-06-16T07:49:05.381Z,17.30
2018-06-16T07:50:05.321Z,12.00
2018-06-16T07:51:05.266Z,12.40
2018-06-16T07:52:05.212Z,13.10
2018-06-16T07:53:05.145Z,11.80
2018-06-16T07:54:05.087Z,11.70
2018-06-16T07:55:05.028Z,11.70
2018-06-16T07:56:04.969Z,13.20
2018-06-16T07:57:04.916Z,15.50
2018-06-16T07:58:04.851Z,13.40
2018-06-16T07:59:04.790Z,21.40
2018-06-16T08:00:04.733Z,10.10
2018-06-16T08:01:04.675Z,9.70
2018-06-16T08:02:04.616Z,10.40
2018-06-16T08:03:04.561Z,9.60
2018-06-16T08:04:04.500Z,8.90
2018-06-16T08:05:04.442Z,9.30
2018-06-16T08:06:04.382Z,9.40
2018-06-16T08:07:04.325Z,10.10
2018-06-16T08:08:04.266Z,8.40
2018-06-16T08:09:04.211Z,8.20
2018-06-16T08:10:04.148Z,8.20
2018-06-16T08:11:04.094Z,14.20
2018-06-16T08:12:04.032Z,9.40
2018-06-16T08:13:03.976Z,8.40
2018-06-16T08:14:03.918Z,9.60
2018-06-16T08:15:03.862Z,8.40
2018-06-16T08:16:03.800Z,8.00
2018-06-16T08:17:03.742Z,10.00
2018-06-16T08:18:03.728Z,10.10
2018-06-16T08:19:03.625Z,8.80
2018-06-16T08:20:03.567Z,9.40
2018-06-16T08:21:03.511Z,7.90
2018-06-16T08:22:03.450Z,9.40
2018-06-16T08:23:03.391Z,9.10
2018-06-16T08:24:03.335Z,7.80
2018-06-16T08:25:03.277Z,8.20
2018-06-16T08:26:03.219Z,8.30
2018-06-16T08:27:03.163Z,6.80
2018-06-16T08:28:03.103Z,9.80
2018-06-16T08:29:03.050Z,7.20
2018-06-16T08:30:02.987Z,7.10
2018-06-16T08:31:02.931Z,7.20
2018-06-16T08:32:02.872Z,6.90
2018-06-16T08:33:02.815Z,6.50
2018-06-16T08:34:02.756Z,6.10
2018-06-16T08:35:02.698Z,6.00
2018-06-16T08:36:02.641Z,5.40
2018-06-16T08:37:02.584Z,5.50
2018-06-16T08:38:02.525Z,6.80
2018-06-16T08:39:02.467Z,6.70
2018-06-16T08:40:02.413Z,6.80
2018-06-16T08:41:02.353Z,6.90
2018-06-16T08:42:02.296Z,15.60
2018-06-16T08:43:02.239Z,20.60
2018-06-16T08:44:02.181Z,17.10
2018-06-16T08:45:02.124Z,10.40
2018-06-16T08:46:02.068Z,6.50
2018-06-16T08:47:02.011Z,24.40
2018-06-16T08:48:01.950Z,6.70
2018-06-16T08:49:01.894Z,5.20
2018-06-16T08:50:01.836Z,5.80
2018-06-16T08:51:01.778Z,20.60
2018-06-16T08:52:01.720Z,9.40
2018-06-16T08:53:01.663Z,6.20
2018-06-16T08:54:01.609Z,6.30
2018-06-16T08:55:01.549Z,8.70
2018-06-16T08:56:01.499Z,12.90
2018-06-16T08:57:01.435Z,11.60
2018-06-16T08:58:01.378Z,13.70
2018-06-16T08:59:01.319Z,6.30
2018-06-16T09:00:01.262Z,5.60
2018-06-16T09:01:01.206Z,8.30
2018-06-16T09:02:01.147Z,9.90
2018-06-16T09:03:01.090Z,12.40
2018-06-16T09:04:01.036Z,22.70
2018-06-16T09:05:00.977Z,8.20
2018-06-16T09:06:00.919Z,14.30
2018-06-16T09:07:00.863Z,11.30
2018-06-16T09:08:00.807Z,11.20
2018-06-16T09:09:00.749Z,7.30
2018-06-16T09:10:00.692Z,8.10
2018-06-16T09:11:00.636Z,9.00
2018-06-16T09:12:00.580Z,9.90
2018-06-16T09:13:00.525Z,6.50
2018-06-16T09:14:00.469Z,14.50
2018-06-16T09:15:00.410Z,6.20
2018-06-16T09:16:00.356Z,6.50
2018-06-16T09:17:00.298Z,7.00
2018-06-16T09:18:00.247Z,5.50
2018-06-16T09:19:00.188Z,5.50
2018-06-16T09:20:00.134Z,5.70
2018-06-16T09:21:00.079Z,5.30
2018-06-16T09:22:00.025Z,15.60
2018-06-16T09:22:59.968Z,8.30
2018-06-16T09:23:59.913Z,6.90
2018-06-16T09:24:59.862Z,5.10
2018-06-16T09:25:59.802Z,4.90
2018-06-16T09:26:59.752Z,5.10
2018-06-16T09:27:59.735Z,6.00
2018-06-16T09:28:59.647Z,17.40
2018-06-16T09:29:59.591Z,6.20
2018-06-16T09:30:59.537Z,14.10
2018-06-16T09:31:59.484Z,8.90
2018-06-16T09:32:59.432Z,8.10
2018-06-16T09:33:59.379Z,5.50
2018-06-16T09:34:59.326Z,6.70
2018-06-16T09:35:59.278Z,5.60
2018-06-16T09:36:59.220Z,5.70
2018-06-16T09:37:59.166Z,8.00
2018-06-16T09:38:59.114Z,6.70
2018-06-16T09:39:59.060Z,7.90
2018-06-16T09:40:59.011Z,6.10
2018-06-16T09:41:58.971Z,5.60
2018-06-16T09:42:58.906Z,6.30
2018-06-16T09:43:58.877Z,5.40
2018-06-16T09:44:58.802Z,6.50
2018-06-16T09:45:58.750Z,4.80
2018-06-16T09:46:58.695Z,6.60
2018-06-16T09:47:58.643Z,10.10
2018-06-16T09:48:58.590Z,13.60
2018-06-16T09:49:58.536Z,6.40
2018-06-16T09:50:58.482Z,5.40
2018-06-16T09:51:58.432Z,6.40
2018-06-16T09:52:58.379Z,6.90
2018-06-16T09:53:58.327Z,7.10
2018-06-16T09:54:58.274Z,5.10
2018-06-16T09:55:58.225Z,6.10
2018-06-16T09:56:58.171Z,4.80
2018-06-16T09:57:58.118Z,4.80
2018-06-16T09:58:58.068Z,10.30
2018-06-16T09:59:58.017Z,12.00
2018-06-16T10:00:57.966Z,10.00
2018-06-16T10:01:57.912Z,15.40
2018-06-16T10:02:57.861Z,5.30
2018-06-16T10:03:57.812Z,5.10
2018-06-16T10:04:57.758Z,6.30
2018-06-16T10:05:57.706Z,14.10
2018-06-16T10:06:57.656Z,7.00
2018-06-16T10:07:57.605Z,6.90
2018-06-16T10:08:57.553Z,3.80
2018-06-16T10:09:57.501Z,8.30
2018-06-16T10:10:57.452Z,5.60
2018-06-16T10:11:57.400Z,4.30
2018-06-16T10:12:57.349Z,13.10
2018-06-16T10:13:57.295Z,5.30
2018-06-16T10:14:57.247Z,7.60
2018-06-16T10:15:57.255Z,16.60
2018-06-16T10:16:57.145Z,4.60
2018-06-16T10:17:57.096Z,7.00
2018-06-16T10:18:57.041Z,5.00
2018-06-16T10:19:56.989Z,6.50
2018-06-16T10:20:56.940Z,7.60
2018-06-16T10:21:56.885Z,9.90
2018-06-16T10:22:56.833Z,7.20
2018-06-16T10:23:56.777Z,8.20
2018-06-16T10:24:56.728Z,4.20
2018-06-16T10:25:56.678Z,3.80
2018-06-16T10:26:56.622Z,5.00
2018-06-16T10:27:56.576Z,4.00
2018-06-16T10:28:56.527Z,3.70
2018-06-16T10:29:56.467Z,4.00
2018-06-16T10:30:56.414Z,3.80
2018-06-16T10:31:56.364Z,4.20
2018-06-16T10:32:56.315Z,3.80
2018-06-16T10:33:56.258Z,4.50
2018-06-16T10:34:56.209Z,3.70
2018-06-16T10:35:56.157Z,4.10
2018-06-16T10:36:56.103Z,4.10
2018-06-16T10:37:56.051Z,3.70
2018-06-16T10:38:55.998Z,3.70
2018-06-16T10:39:55.949Z,3.60
2018-06-16T10:40:55.897Z,3.80
2018-06-16T10:41:55.844Z,3.40
2018-06-16T10:42:55.792Z,4.10
2018-06-16T10:43:55.739Z,4.00
2018-06-16T10:44:55.687Z,3.50
2018-06-16T10:45:55.637Z,3.60
2018-06-16T10:46:55.579Z,3.50
2018-06-16T10:47:55.531Z,3.30
2018-06-16T10:48:55.480Z,3.60
2018-06-16T10:49:55.425Z,3.80
2018-06-16T10:50:55.375Z,5.20
2018-06-16T10:51:55.322Z,3.50
2018-06-16T10:52:55.270Z,5.20
2018-06-16T10:53:55.220Z,4.40
2018-06-16T10:54:55.168Z,3.50
2018-06-16T10:55:55.120Z,3.80
2018-06-16T10:56:55.065Z,3.80
2018-06-16T10:57:55.010Z,4.40
2018-06-16T10:58:54.962Z,3.80
2018-06-16T10:59:54.910Z,3.70
2018-06-16T11:00:54.861Z,4.10
2018-06-16T11:01:54.808Z,3.90
2018-06-16T11:02:54.761Z,3.30
2018-06-16T11:03:54.705Z,4.50
2018-06-16T11:04:54.653Z,3.60
2018-06-16T11:05:54.604Z,6.10
2018-06-16T11:06:54.551Z,3.50
2018-06-16T11:07:54.499Z,4.60
2018-06-16T11:08:54.450Z,4.70
2018-06-16T11:09:54.399Z,18.80
2018-06-16T11:10:54.344Z,7.10
2018-06-16T11:11:54.292Z,13.60
2018-06-16T11:12:54.244Z,4.00
2018-06-16T11:13:54.190Z,3.40
2018-06-16T11:14:54.132Z,9.00
2018-06-16T11:15:54.087Z,3.30
2018-06-16T11:16:54.036Z,3.60
2018-06-16T11:17:53.982Z,7.10
2018-06-16T11:18:53.932Z,12.40
2018-06-16T11:19:53.879Z,11.00
2018-06-16T11:20:53.828Z,5.10
2018-06-16T11:21:53.775Z,4.30
2018-06-16T11:22:53.723Z,5.40
2018-06-16T11:23:53.670Z,6.90
2018-06-16T11:24:53.619Z,4.00
2018-06-16T11:25:53.564Z,3.30
2018-06-16T11:26:53.514Z,3.30
2018-06-16T11:27:53.458Z,3.20
2018-06-16T11:28:53.403Z,3.10
2018-06-16T11:29:53.350Z,4.40
2018-06-16T11:30:53.298Z,3.60
2018-06-16T11:31:53.241Z,11.60
2018-06-16T11:32:53.188Z,5.80
2018-06-16T11:33:53.131Z,9.00
2018-06-16T11:34:53.078Z,12.00
2018-06-16T11:35:53.022Z,7.30
2018-06-16T11:36:52.970Z,5.10
2018-06-16T11:37:52.914Z,4.00
2018-06-16T11:38:52.859Z,5.10
2018-06-16T11:39:52.805Z,4.60
2018-06-16T11:40:52.766Z,3.50
2018-06-16T11:41:52.694Z,3.20
2018-06-16T11:42:52.641Z,3.90
2018-06-16T11:43:52.588Z,4.30
2018-06-16T11:44:52.531Z,5.70
2018-06-16T11:45:52.478Z,9.20
2018-06-16T11:46:52.417Z,5.20
2018-06-16T11:47:52.363Z,5.20
2018-06-16T11:48:52.308Z,8.60
2018-06-16T11:49:52.253Z,6.20
2018-06-16T11:50:52.202Z,7.40
2018-06-16T11:51:52.143Z,12.50
2018-06-16T11:52:52.088Z,10.80
2018-06-16T11:53:52.032Z,7.40
2018-06-16T11:54:51.983Z,4.90
2018-06-16T11:55:51.920Z,3.90
2018-06-16T11:56:51.864Z,27.30
2018-06-16T11:57:51.813Z,6.80
2018-06-16T11:58:51.752Z,11.50
2018-06-16T11:59:51.699Z,9.60
2018-06-16T12:00:51.644Z,3.10
2018-06-16T12:01:51.609Z,3.40
2018-06-16T12:02:51.530Z,3.20
2018-06-16T12:03:51.475Z,3.60
2018-06-16T12:04:51.421Z,8.00
2018-06-16T12:05:51.363Z,3.50
2018-06-16T12:06:51.308Z,3.10
2018-06-16T12:07:51.257Z,3.70
2018-06-16T12:08:51.198Z,3.20
2018-06-16T12:09:51.145Z,3.30
2018-06-16T12:10:51.087Z,3.40
2018-06-16T12:11:51.028Z,3.40
2018-06-16T12:12:50.979Z,3.80
2018-06-16T12:13:50.917Z,2.90
2018-06-16T12:14:50.863Z,2.90
2018-06-16T12:15:50.808Z,3.30
2018-06-16T12:16:50.750Z,3.20
2018-06-16T12:17:50.693Z,3.10
2018-06-16T12:18:50.637Z,3.10
2018-06-16T12:19:50.582Z,3.80
2018-06-16T12:20:50.527Z,3.70
2018-06-16T12:21:50.468Z,6.80
2018-06-16T12:22:50.413Z,3.70
2018-06-16T12:23:50.358Z,3.10
2018-06-16T12:24:50.302Z,3.20
2018-06-16T12:25:50.246Z,2.90
2018-06-16T12:26:50.192Z,4.50
2018-06-16T12:27:50.134Z,3.90
2018-06-16T12:28:50.079Z,3.10
2018-06-16T12:29:50.102Z,4.10
2018-06-16T12:30:49.972Z,3.00
2018-06-16T12:31:49.911Z,4.00
2018-06-16T12:32:49.856Z,3.30
2018-06-16T12:33:49.798Z,4.10
2018-06-16T12:34:49.753Z,3.10
2018-06-16T12:35:49.687Z,3.20
2018-06-16T12:36:49.640Z,3.10
2018-06-16T12:37:49.585Z,3.10
2018-06-16T12:38:49.521Z,3.00
2018-06-16T12:39:49.462Z,2.90
2018-06-16T12:40:49.410Z,3.20
2018-06-16T12:41:49.351Z,3.00
2018-06-16T12:42:49.296Z,3.10
2018-06-16T12:43:49.242Z,4.40
2018-06-16T12:44:49.188Z,6.10
2018-06-16T12:45:49.130Z,3.20
2018-06-16T12:46:49.074Z,3.80
2018-06-16T12:47:49.018Z,2.80
2018-06-16T12:48:48.961Z,3.20
2018-06-16T12:49:48.904Z,4.40
2018-06-16T12:50:48.904Z,3.20
2018-06-16T12:51:48.837Z,3.70
2018-06-16T12:52:48.738Z,3.20
2018-06-16T12:53:48.680Z,3.00
2018-06-16T12:54:48.627Z,4.50
2018-06-16T12:55:48.571Z,8.00
2018-06-16T12:56:48.535Z,4.20
2018-06-16T12:57:48.510Z,4.40
2018-06-16T12:58:48.408Z,4.00
2018-06-16T12:59:48.346Z,4.00